sensor_id;sensor_type;location;lat;lon;timestamp;P1;durP1;ratioP1;P2;durP2;ratioP2
70975;SDS011;58635;51.198;6.010;2023-11-19T00:00:06;2.45;;;1.27;;
70975;SDS011;58635;51.198;6.010;2023-11-19T00:02:38;2.67;;;1.50;;
70975;SDS011;58635;51.198;6.010;2023-11-19T00:05:05;2.75;;;1.30;;
70975;SDS011;58635;51.198;6.010;2023-11-19T00:07:35;4.32;;;1.60;;
70975;SDS011;58635;51.198;6.010;2023-11-19T00:10:02;2.83;;;1.48;;
70975;SDS011;58635;51.198;6.010;2023-11-19T00:12:32;3.28;;;1.52;;
70975;SDS011;58635;51.198;6.010;2023-11-19T00:14:59;3.10;;;1.70;;
70975;SDS011;58635;51.198;6.010;2023-11-19T00:17:26;2.47;;;1.60;;
70975;SDS011;58635;51.198;6.010;2023-11-19T00:19:53;3.75;;;1.77;;
70975;SDS011;58635;51.198;6.010;2023-11-19T00:22:19;3.05;;;1.85;;
70975;SDS011;58635;51.198;6.010;2023-11-19T00:24:47;2.78;;;1.65;;
70975;SDS011;58635;51.198;6.010;2023-11-19T00:27:13;2.33;;;1.40;;
70975;SDS011;58635;51.198;6.010;2023-11-19T00:29:40;2.95;;;1.45;;
70975;SDS011;58635;51.198;6.010;2023-11-19T00:32:07;2.53;;;1.63;;
70975;SDS011;58635;51.198;6.010;2023-11-19T00:34:33;3.97;;;1.50;;
70975;SDS011;58635;51.198;6.010;2023-11-19T00:36:59;2.55;;;1.40;;
70975;SDS011;58635;51.198;6.010;2023-11-19T00:39:26;3.25;;;1.20;;
70975;SDS011;58635;51.198;6.010;2023-11-19T00:41:52;4.75;;;1.40;;
70975;SDS011;58635;51.198;6.010;2023-11-19T00:44:18;2.85;;;1.40;;
70975;SDS011;58635;51.198;6.010;2023-11-19T00:46:45;2.40;;;1.38;;
70975;SDS011;58635;51.198;6.010;2023-11-19T00:49:12;2.63;;;1.38;;
70975;SDS011;58635;51.198;6.010;2023-11-19T00:51:38;2.35;;;1.40;;
70975;SDS011;58635;51.198;6.010;2023-11-19T00:54:04;1.63;;;1.10;;
70975;SDS011;58635;51.198;6.010;2023-11-19T00:56:31;1.58;;;1.00;;
70975;SDS011;58635;51.198;6.010;2023-11-19T00:58:57;2.40;;;1.27;;
70975;SDS011;58635;51.198;6.010;2023-11-19T01:01:23;3.00;;;1.25;;
70975;SDS011;58635;51.198;6.010;2023-11-19T01:03:50;2.08;;;1.10;;
70975;SDS011;58635;51.198;6.010;2023-11-19T01:06:26;2.35;;;1.10;;
70975;SDS011;58635;51.198;6.010;2023-11-19T01:08:56;2.75;;;1.40;;
70975;SDS011;58635;51.198;6.010;2023-11-19T01:11:23;2.42;;;1.20;;
70975;SDS011;58635;51.198;6.010;2023-11-19T01:13:49;4.50;;;1.33;;
70975;SDS011;58635;51.198;6.010;2023-11-19T01:16:17;4.63;;;1.38;;
70975;SDS011;58635;51.198;6.010;2023-11-19T01:18:46;3.50;;;1.42;;
70975;SDS011;58635;51.198;6.010;2023-11-19T01:21:13;2.70;;;1.13;;
70975;SDS011;58635;51.198;6.010;2023-11-19T01:23:41;3.05;;;1.00;;
70975;SDS011;58635;51.198;6.010;2023-11-19T01:26:11;3.10;;;1.20;;
70975;SDS011;58635;51.198;6.010;2023-11-19T01:28:38;4.68;;;1.40;;
70975;SDS011;58635;51.198;6.010;2023-11-19T01:31:05;2.70;;;1.10;;
70975;SDS011;58635;51.198;6.010;2023-11-19T01:33:37;3.80;;;1.50;;
70975;SDS011;58635;51.198;6.010;2023-11-19T01:36:04;3.13;;;1.30;;
70975;SDS011;58635;51.198;6.010;2023-11-19T01:38:30;3.40;;;1.17;;
70975;SDS011;58635;51.198;6.010;2023-11-19T01:40:57;8.52;;;1.60;;
70975;SDS011;58635;51.198;6.010;2023-11-19T01:43:39;4.95;;;1.50;;
70975;SDS011;58635;51.198;6.010;2023-11-19T01:46:08;7.68;;;1.50;;
70975;SDS011;58635;51.198;6.010;2023-11-19T01:48:42;3.45;;;1.45;;
70975;SDS011;58635;51.198;6.010;2023-11-19T01:53:43;5.70;;;1.52;;
70975;SDS011;58635;51.198;6.010;2023-11-19T01:56:11;9.10;;;1.70;;
70975;SDS011;58635;51.198;6.010;2023-11-19T01:58:40;6.28;;;1.77;;
70975;SDS011;58635;51.198;6.010;2023-11-19T02:01:07;6.05;;;1.52;;
70975;SDS011;58635;51.198;6.010;2023-11-19T02:03:35;5.63;;;1.45;;
70975;SDS011;58635;51.198;6.010;2023-11-19T02:06:01;7.28;;;1.90;;
70975;SDS011;58635;51.198;6.010;2023-11-19T02:08:31;7.35;;;1.88;;
70975;SDS011;58635;51.198;6.010;2023-11-19T02:10:58;8.68;;;1.77;;
70975;SDS011;58635;51.198;6.010;2023-11-19T02:13:24;5.82;;;1.65;;
70975;SDS011;58635;51.198;6.010;2023-11-19T02:15:52;7.55;;;1.80;;
70975;SDS011;58635;51.198;6.010;2023-11-19T02:18:19;8.27;;;1.92;;
70975;SDS011;58635;51.198;6.010;2023-11-19T02:20:50;10.95;;;1.95;;
70975;SDS011;58635;51.198;6.010;2023-11-19T02:23:18;7.18;;;2.10;;
70975;SDS011;58635;51.198;6.010;2023-11-19T02:25:56;8.90;;;2.08;;
70975;SDS011;58635;51.198;6.010;2023-11-19T02:28:43;7.53;;;2.10;;
70975;SDS011;58635;51.198;6.010;2023-11-19T02:31:10;8.52;;;1.90;;
70975;SDS011;58635;51.198;6.010;2023-11-19T02:33:37;9.10;;;2.28;;
70975;SDS011;58635;51.198;6.010;2023-11-19T02:36:05;11.90;;;3.30;;
70975;SDS011;58635;51.198;6.010;2023-11-19T02:38:33;10.45;;;2.10;;
70975;SDS011;58635;51.198;6.010;2023-11-19T02:41:02;9.95;;;1.98;;
70975;SDS011;58635;51.198;6.010;2023-11-19T02:43:32;11.88;;;2.28;;
70975;SDS011;58635;51.198;6.010;2023-11-19T02:46:00;8.77;;;2.40;;
70975;SDS011;58635;51.198;6.010;2023-11-19T02:48:27;9.40;;;2.33;;
70975;SDS011;58635;51.198;6.010;2023-11-19T02:50:53;9.95;;;2.15;;
70975;SDS011;58635;51.198;6.010;2023-11-19T02:53:20;11.30;;;2.28;;
70975;SDS011;58635;51.198;6.010;2023-11-19T02:55:48;11.10;;;2.67;;
70975;SDS011;58635;51.198;6.010;2023-11-19T02:58:16;13.07;;;2.47;;
70975;SDS011;58635;51.198;6.010;2023-11-19T03:00:50;8.30;;;2.30;;
70975;SDS011;58635;51.198;6.010;2023-11-19T03:03:24;17.65;;;2.60;;
70975;SDS011;58635;51.198;6.010;2023-11-19T03:05:54;12.00;;;2.75;;
70975;SDS011;58635;51.198;6.010;2023-11-19T03:08:21;12.48;;;2.25;;
70975;SDS011;58635;51.198;6.010;2023-11-19T03:10:48;12.10;;;2.40;;
70975;SDS011;58635;51.198;6.010;2023-11-19T03:13:15;12.18;;;2.70;;
70975;SDS011;58635;51.198;6.010;2023-11-19T03:15:42;17.75;;;2.90;;
70975;SDS011;58635;51.198;6.010;2023-11-19T03:18:09;13.07;;;2.85;;
70975;SDS011;58635;51.198;6.010;2023-11-19T03:20:35;9.48;;;2.20;;
70975;SDS011;58635;51.198;6.010;2023-11-19T03:23:01;14.25;;;2.60;;
70975;SDS011;58635;51.198;6.010;2023-11-19T03:25:28;12.98;;;2.63;;
70975;SDS011;58635;51.198;6.010;2023-11-19T03:28:02;10.40;;;2.20;;
70975;SDS011;58635;51.198;6.010;2023-11-19T03:30:30;15.93;;;3.20;;
70975;SDS011;58635;51.198;6.010;2023-11-19T03:32:57;17.83;;;3.10;;
70975;SDS011;58635;51.198;6.010;2023-11-19T03:35:24;10.57;;;2.90;;
70975;SDS011;58635;51.198;6.010;2023-11-19T03:37:50;16.88;;;3.05;;
70975;SDS011;58635;51.198;6.010;2023-11-19T03:40:18;17.00;;;3.08;;
70975;SDS011;58635;51.198;6.010;2023-11-19T03:42:47;15.52;;;2.90;;
70975;SDS011;58635;51.198;6.010;2023-11-19T03:45:13;12.75;;;2.80;;
70975;SDS011;58635;51.198;6.010;2023-11-19T03:47:41;21.05;;;3.80;;
70975;SDS011;58635;51.198;6.010;2023-11-19T03:50:08;19.58;;;3.70;;
70975;SDS011;58635;51.198;6.010;2023-11-19T03:52:35;19.40;;;3.00;;
70975;SDS011;58635;51.198;6.010;2023-11-19T03:55:01;16.95;;;2.90;;
70975;SDS011;58635;51.198;6.010;2023-11-19T03:57:29;16.67;;;3.13;;
70975;SDS011;58635;51.198;6.010;2023-11-19T03:59:56;16.85;;;3.25;;
70975;SDS011;58635;51.198;6.010;2023-11-19T04:02:24;12.35;;;3.30;;
70975;SDS011;58635;51.198;6.010;2023-11-19T04:04:54;12.32;;;2.88;;
70975;SDS011;58635;51.198;6.010;2023-11-19T04:07:21;16.30;;;2.85;;
70975;SDS011;58635;51.198;6.010;2023-11-19T04:09:47;13.85;;;2.78;;
70975;SDS011;58635;51.198;6.010;2023-11-19T04:12:14;14.88;;;3.03;;
70975;SDS011;58635;51.198;6.010;2023-11-19T04:14:40;11.77;;;2.67;;
70975;SDS011;58635;51.198;6.010;2023-11-19T04:17:06;14.02;;;2.97;;
70975;SDS011;58635;51.198;6.010;2023-11-19T04:19:33;12.35;;;2.35;;
70975;SDS011;58635;51.198;6.010;2023-11-19T04:21:59;15.13;;;2.95;;
70975;SDS011;58635;51.198;6.010;2023-11-19T04:24:25;12.80;;;2.63;;
70975;SDS011;58635;51.198;6.010;2023-11-19T04:26:52;11.98;;;2.83;;
70975;SDS011;58635;51.198;6.010;2023-11-19T04:29:18;13.63;;;2.75;;
70975;SDS011;58635;51.198;6.010;2023-11-19T04:31:45;12.20;;;2.88;;
70975;SDS011;58635;51.198;6.010;2023-11-19T04:34:12;16.50;;;3.20;;
70975;SDS011;58635;51.198;6.010;2023-11-19T04:36:38;16.75;;;3.00;;
70975;SDS011;58635;51.198;6.010;2023-11-19T04:39:05;21.05;;;3.33;;
70975;SDS011;58635;51.198;6.010;2023-11-19T04:41:35;14.80;;;3.10;;
70975;SDS011;58635;51.198;6.010;2023-11-19T04:44:02;15.43;;;3.20;;
70975;SDS011;58635;51.198;6.010;2023-11-19T04:46:28;17.00;;;3.30;;
70975;SDS011;58635;51.198;6.010;2023-11-19T04:48:55;17.15;;;3.33;;
70975;SDS011;58635;51.198;6.010;2023-11-19T04:51:21;16.52;;;3.78;;
70975;SDS011;58635;51.198;6.010;2023-11-19T04:53:48;17.95;;;3.15;;
70975;SDS011;58635;51.198;6.010;2023-11-19T04:56:14;19.30;;;3.47;;
70975;SDS011;58635;51.198;6.010;2023-11-19T04:58:42;16.83;;;3.30;;
70975;SDS011;58635;51.198;6.010;2023-11-19T05:01:13;14.95;;;2.72;;
70975;SDS011;58635;51.198;6.010;2023-11-19T05:03:41;15.23;;;3.00;;
70975;SDS011;58635;51.198;6.010;2023-11-19T05:06:08;19.15;;;3.55;;
70975;SDS011;58635;51.198;6.010;2023-11-19T05:08:35;17.48;;;2.83;;
70975;SDS011;58635;51.198;6.010;2023-11-19T05:11:01;16.10;;;3.13;;
70975;SDS011;58635;51.198;6.010;2023-11-19T05:13:28;14.90;;;3.15;;
70975;SDS011;58635;51.198;6.010;2023-11-19T05:15:54;17.75;;;3.22;;
70975;SDS011;58635;51.198;6.010;2023-11-19T05:18:20;19.13;;;3.95;;
70975;SDS011;58635;51.198;6.010;2023-11-19T05:20:47;13.48;;;3.08;;
70975;SDS011;58635;51.198;6.010;2023-11-19T05:23:13;20.98;;;3.38;;
70975;SDS011;58635;51.198;6.010;2023-11-19T05:25:39;15.68;;;3.22;;
70975;SDS011;58635;51.198;6.010;2023-11-19T05:28:06;15.00;;;3.63;;
70975;SDS011;58635;51.198;6.010;2023-11-19T05:30:32;19.38;;;3.50;;
70975;SDS011;58635;51.198;6.010;2023-11-19T05:32:58;18.52;;;3.53;;
70975;SDS011;58635;51.198;6.010;2023-11-19T05:35:25;16.58;;;3.75;;
70975;SDS011;58635;51.198;6.010;2023-11-19T05:37:51;16.52;;;4.03;;
70975;SDS011;58635;51.198;6.010;2023-11-19T05:40:17;14.02;;;3.08;;
70975;SDS011;58635;51.198;6.010;2023-11-19T05:42:44;16.45;;;3.58;;
70975;SDS011;58635;51.198;6.010;2023-11-19T05:45:11;19.65;;;3.28;;
70975;SDS011;58635;51.198;6.010;2023-11-19T05:47:38;19.05;;;3.38;;
70975;SDS011;58635;51.198;6.010;2023-11-19T05:50:04;17.20;;;3.45;;
70975;SDS011;58635;51.198;6.010;2023-11-19T05:52:32;19.17;;;3.40;;
70975;SDS011;58635;51.198;6.010;2023-11-19T05:55:00;14.18;;;3.30;;
70975;SDS011;58635;51.198;6.010;2023-11-19T05:57:30;18.08;;;3.40;;
70975;SDS011;58635;51.198;6.010;2023-11-19T05:59:56;15.55;;;3.22;;
70975;SDS011;58635;51.198;6.010;2023-11-19T06:02:22;15.60;;;3.72;;
70975;SDS011;58635;51.198;6.010;2023-11-19T06:04:49;16.48;;;3.00;;
70975;SDS011;58635;51.198;6.010;2023-11-19T06:07:15;20.63;;;3.53;;
70975;SDS011;58635;51.198;6.010;2023-11-19T06:09:42;15.70;;;3.00;;
70975;SDS011;58635;51.198;6.010;2023-11-19T06:12:08;18.02;;;3.65;;
70975;SDS011;58635;51.198;6.010;2023-11-19T06:14:34;22.83;;;4.20;;
70975;SDS011;58635;51.198;6.010;2023-11-19T06:17:01;16.83;;;3.78;;
70975;SDS011;58635;51.198;6.010;2023-11-19T06:19:27;18.33;;;3.53;;
70975;SDS011;58635;51.198;6.010;2023-11-19T06:21:54;20.15;;;3.45;;
70975;SDS011;58635;51.198;6.010;2023-11-19T06:24:20;16.58;;;3.25;;
70975;SDS011;58635;51.198;6.010;2023-11-19T06:26:46;17.23;;;3.83;;
70975;SDS011;58635;51.198;6.010;2023-11-19T06:29:13;23.75;;;4.43;;
70975;SDS011;58635;51.198;6.010;2023-11-19T06:31:44;17.00;;;3.13;;
70975;SDS011;58635;51.198;6.010;2023-11-19T06:34:11;17.75;;;3.28;;
70975;SDS011;58635;51.198;6.010;2023-11-19T06:36:37;19.25;;;3.70;;
70975;SDS011;58635;51.198;6.010;2023-11-19T06:39:04;14.32;;;3.47;;
70975;SDS011;58635;51.198;6.010;2023-11-19T06:41:31;21.35;;;3.42;;
70975;SDS011;58635;51.198;6.010;2023-11-19T06:43:58;17.83;;;3.88;;
70975;SDS011;58635;51.198;6.010;2023-11-19T06:46:26;66.05;;;33.95;;
70975;SDS011;58635;51.198;6.010;2023-11-19T06:48:52;26.55;;;4.47;;
70975;SDS011;58635;51.198;6.010;2023-11-19T06:51:18;17.40;;;3.58;;
70975;SDS011;58635;51.198;6.010;2023-11-19T06:53:44;23.60;;;4.07;;
70975;SDS011;58635;51.198;6.010;2023-11-19T06:56:21;23.13;;;3.95;;
70975;SDS011;58635;51.198;6.010;2023-11-19T06:58:49;20.80;;;3.63;;
70975;SDS011;58635;51.198;6.010;2023-11-19T07:01:16;21.65;;;4.53;;
70975;SDS011;58635;51.198;6.010;2023-11-19T07:03:47;19.02;;;4.18;;
70975;SDS011;58635;51.198;6.010;2023-11-19T07:06:13;21.83;;;4.47;;
70975;SDS011;58635;51.198;6.010;2023-11-19T07:08:43;18.83;;;3.60;;
70975;SDS011;58635;51.198;6.010;2023-11-19T07:11:13;17.83;;;3.60;;
70975;SDS011;58635;51.198;6.010;2023-11-19T07:13:41;22.80;;;4.40;;
70975;SDS011;58635;51.198;6.010;2023-11-19T07:16:07;22.00;;;4.43;;
70975;SDS011;58635;51.198;6.010;2023-11-19T07:18:35;22.13;;;4.28;;
70975;SDS011;58635;51.198;6.010;2023-11-19T07:21:02;24.10;;;4.03;;
70975;SDS011;58635;51.198;6.010;2023-11-19T07:23:30;26.00;;;4.20;;
70975;SDS011;58635;51.198;6.010;2023-11-19T07:25:57;20.05;;;4.25;;
70975;SDS011;58635;51.198;6.010;2023-11-19T07:28:23;22.70;;;4.07;;
70975;SDS011;58635;51.198;6.010;2023-11-19T07:30:49;18.27;;;3.97;;
70975;SDS011;58635;51.198;6.010;2023-11-19T07:33:16;19.75;;;4.07;;
70975;SDS011;58635;51.198;6.010;2023-11-19T07:35:42;20.77;;;3.58;;
70975;SDS011;58635;51.198;6.010;2023-11-19T07:38:09;18.83;;;4.30;;
70975;SDS011;58635;51.198;6.010;2023-11-19T07:40:35;20.40;;;4.18;;
70975;SDS011;58635;51.198;6.010;2023-11-19T07:43:02;19.40;;;3.70;;
70975;SDS011;58635;51.198;6.010;2023-11-19T07:45:28;19.75;;;3.75;;
70975;SDS011;58635;51.198;6.010;2023-11-19T07:47:54;23.92;;;6.30;;
70975;SDS011;58635;51.198;6.010;2023-11-19T07:50:21;19.92;;;4.15;;
70975;SDS011;58635;51.198;6.010;2023-11-19T07:52:47;22.02;;;4.32;;
70975;SDS011;58635;51.198;6.010;2023-11-19T07:55:13;17.98;;;4.10;;
70975;SDS011;58635;51.198;6.010;2023-11-19T07:57:40;20.00;;;3.60;;
70975;SDS011;58635;51.198;6.010;2023-11-19T08:00:06;19.98;;;3.42;;
70975;SDS011;58635;51.198;6.010;2023-11-19T08:02:33;20.40;;;3.67;;
70975;SDS011;58635;51.198;6.010;2023-11-19T08:04:59;18.35;;;3.58;;
70975;SDS011;58635;51.198;6.010;2023-11-19T08:07:26;21.52;;;3.83;;
70975;SDS011;58635;51.198;6.010;2023-11-19T08:09:52;25.45;;;3.60;;
70975;SDS011;58635;51.198;6.010;2023-11-19T08:12:19;17.58;;;4.10;;
70975;SDS011;58635;51.198;6.010;2023-11-19T08:14:45;24.00;;;3.70;;
70975;SDS011;58635;51.198;6.010;2023-11-19T08:17:12;22.70;;;4.75;;
70975;SDS011;58635;51.198;6.010;2023-11-19T08:19:38;22.92;;;4.13;;
70975;SDS011;58635;51.198;6.010;2023-11-19T08:22:05;17.45;;;4.47;;
70975;SDS011;58635;51.198;6.010;2023-11-19T08:24:31;18.73;;;3.35;;
70975;SDS011;58635;51.198;6.010;2023-11-19T08:26:57;18.27;;;3.88;;
70975;SDS011;58635;51.198;6.010;2023-11-19T08:29:23;23.60;;;4.65;;
70975;SDS011;58635;51.198;6.010;2023-11-19T08:31:50;23.65;;;6.07;;
70975;SDS011;58635;51.198;6.010;2023-11-19T08:34:17;26.08;;;4.40;;
70975;SDS011;58635;51.198;6.010;2023-11-19T08:36:43;22.23;;;3.92;;
70975;SDS011;58635;51.198;6.010;2023-11-19T08:39:09;20.00;;;4.10;;
70975;SDS011;58635;51.198;6.010;2023-11-19T08:41:35;18.25;;;3.80;;
70975;SDS011;58635;51.198;6.010;2023-11-19T08:44:04;19.92;;;3.55;;
70975;SDS011;58635;51.198;6.010;2023-11-19T08:46:30;19.20;;;4.30;;
70975;SDS011;58635;51.198;6.010;2023-11-19T08:48:56;24.95;;;4.13;;
70975;SDS011;58635;51.198;6.010;2023-11-19T08:51:24;22.20;;;4.22;;
70975;SDS011;58635;51.198;6.010;2023-11-19T08:53:51;20.52;;;3.90;;
70975;SDS011;58635;51.198;6.010;2023-11-19T08:56:17;24.75;;;4.57;;
70975;SDS011;58635;51.198;6.010;2023-11-19T08:58:43;22.90;;;4.78;;
70975;SDS011;58635;51.198;6.010;2023-11-19T09:01:09;23.50;;;4.45;;
70975;SDS011;58635;51.198;6.010;2023-11-19T09:03:36;21.50;;;3.45;;
70975;SDS011;58635;51.198;6.010;2023-11-19T09:06:03;25.95;;;4.72;;
70975;SDS011;58635;51.198;6.010;2023-11-19T09:08:30;25.02;;;4.18;;
70975;SDS011;58635;51.198;6.010;2023-11-19T09:10:57;20.58;;;4.45;;
70975;SDS011;58635;51.198;6.010;2023-11-19T09:13:23;25.42;;;4.78;;
70975;SDS011;58635;51.198;6.010;2023-11-19T09:15:49;19.25;;;4.35;;
70975;SDS011;58635;51.198;6.010;2023-11-19T09:18:15;25.52;;;10.02;;
70975;SDS011;58635;51.198;6.010;2023-11-19T09:20:42;35.83;;;14.77;;
70975;SDS011;58635;51.198;6.010;2023-11-19T09:23:08;26.50;;;4.63;;
70975;SDS011;58635;51.198;6.010;2023-11-19T09:25:35;18.17;;;3.97;;
70975;SDS011;58635;51.198;6.010;2023-11-19T09:28:01;26.60;;;4.40;;
70975;SDS011;58635;51.198;6.010;2023-11-19T09:30:27;21.17;;;3.90;;
70975;SDS011;58635;51.198;6.010;2023-11-19T09:32:54;22.30;;;3.97;;
70975;SDS011;58635;51.198;6.010;2023-11-19T09:35:20;25.10;;;4.20;;
70975;SDS011;58635;51.198;6.010;2023-11-19T09:37:46;19.23;;;3.90;;
70975;SDS011;58635;51.198;6.010;2023-11-19T09:40:12;20.30;;;4.00;;
70975;SDS011;58635;51.198;6.010;2023-11-19T09:42:43;21.80;;;3.80;;
70975;SDS011;58635;51.198;6.010;2023-11-19T09:47:40;24.17;;;4.25;;
70975;SDS011;58635;51.198;6.010;2023-11-19T09:50:17;20.88;;;4.68;;
70975;SDS011;58635;51.198;6.010;2023-11-19T09:52:45;27.90;;;9.35;;
70975;SDS011;58635;51.198;6.010;2023-11-19T09:55:12;23.45;;;4.00;;
70975;SDS011;58635;51.198;6.010;2023-11-19T09:57:39;19.00;;;4.50;;
70975;SDS011;58635;51.198;6.010;2023-11-19T10:00:06;20.55;;;3.80;;
70975;SDS011;58635;51.198;6.010;2023-11-19T10:02:34;22.67;;;4.10;;
70975;SDS011;58635;51.198;6.010;2023-11-19T10:05:06;18.63;;;3.63;;
70975;SDS011;58635;51.198;6.010;2023-11-19T10:07:33;20.17;;;4.28;;
70975;SDS011;58635;51.198;6.010;2023-11-19T10:10:00;16.88;;;3.80;;
70975;SDS011;58635;51.198;6.010;2023-11-19T10:12:30;19.23;;;4.22;;
70975;SDS011;58635;51.198;6.010;2023-11-19T10:14:57;17.45;;;3.67;;
70975;SDS011;58635;51.198;6.010;2023-11-19T10:17:42;23.45;;;4.75;;
70975;SDS011;58635;51.198;6.010;2023-11-19T10:20:08;22.00;;;3.70;;
70975;SDS011;58635;51.198;6.010;2023-11-19T10:22:36;16.08;;;4.10;;
70975;SDS011;58635;51.198;6.010;2023-11-19T10:25:04;17.08;;;3.33;;
70975;SDS011;58635;51.198;6.010;2023-11-19T10:27:31;21.60;;;5.13;;
70975;SDS011;58635;51.198;6.010;2023-11-19T10:30:00;19.20;;;3.67;;
70975;SDS011;58635;51.198;6.010;2023-11-19T10:32:27;19.15;;;3.60;;
70975;SDS011;58635;51.198;6.010;2023-11-19T10:35:04;16.27;;;3.50;;
70975;SDS011;58635;51.198;6.010;2023-11-19T10:37:31;19.33;;;4.55;;
70975;SDS011;58635;51.198;6.010;2023-11-19T10:39:58;16.40;;;3.60;;
70975;SDS011;58635;51.198;6.010;2023-11-19T10:42:25;18.27;;;3.60;;
70975;SDS011;58635;51.198;6.010;2023-11-19T10:44:51;13.82;;;3.05;;
70975;SDS011;58635;51.198;6.010;2023-11-19T10:47:18;22.05;;;3.75;;
70975;SDS011;58635;51.198;6.010;2023-11-19T10:49:45;18.27;;;3.35;;
70975;SDS011;58635;51.198;6.010;2023-11-19T10:52:12;17.05;;;3.50;;
70975;SDS011;58635;51.198;6.010;2023-11-19T10:54:44;12.97;;;3.07;;
70975;SDS011;58635;51.198;6.010;2023-11-19T10:57:20;17.45;;;3.70;;
70975;SDS011;58635;51.198;6.010;2023-11-19T10:59:52;19.08;;;3.33;;
70975;SDS011;58635;51.198;6.010;2023-11-19T11:02:22;20.17;;;4.00;;
70975;SDS011;58635;51.198;6.010;2023-11-19T11:04:52;16.10;;;3.85;;
70975;SDS011;58635;51.198;6.010;2023-11-19T11:07:21;22.60;;;4.10;;
70975;SDS011;58635;51.198;6.010;2023-11-19T11:09:51;16.63;;;3.47;;
70975;SDS011;58635;51.198;6.010;2023-11-19T11:12:17;16.75;;;3.90;;
70975;SDS011;58635;51.198;6.010;2023-11-19T11:14:49;22.67;;;3.97;;
70975;SDS011;58635;51.198;6.010;2023-11-19T11:17:17;19.83;;;3.72;;
70975;SDS011;58635;51.198;6.010;2023-11-19T11:19:44;21.23;;;5.00;;
70975;SDS011;58635;51.198;6.010;2023-11-19T11:22:11;15.77;;;3.40;;
70975;SDS011;58635;51.198;6.010;2023-11-19T11:24:48;19.10;;;3.80;;
70975;SDS011;58635;51.198;6.010;2023-11-19T11:27:50;13.75;;;3.20;;
70975;SDS011;58635;51.198;6.010;2023-11-19T11:30:42;18.95;;;3.60;;
70975;SDS011;58635;51.198;6.010;2023-11-19T11:33:24;18.27;;;4.03;;
70975;SDS011;58635;51.198;6.010;2023-11-19T11:38:38;16.92;;;3.33;;
70975;SDS011;58635;51.198;6.010;2023-11-19T11:41:17;14.90;;;3.17;;
70975;SDS011;58635;51.198;6.010;2023-11-19T11:43:49;14.27;;;3.28;;
70975;SDS011;58635;51.198;6.010;2023-11-19T11:49:04;20.80;;;3.90;;
70975;SDS011;58635;51.198;6.010;2023-11-19T11:54:11;24.23;;;5.28;;
70975;SDS011;58635;51.198;6.010;2023-11-19T11:57:08;14.75;;;3.75;;
70975;SDS011;58635;51.198;6.010;2023-11-19T11:59:37;16.08;;;3.70;;
70975;SDS011;58635;51.198;6.010;2023-11-19T12:02:12;14.95;;;3.13;;
70975;SDS011;58635;51.198;6.010;2023-11-19T12:04:40;16.45;;;3.83;;
70975;SDS011;58635;51.198;6.010;2023-11-19T12:07:14;18.27;;;3.38;;
70975;SDS011;58635;51.198;6.010;2023-11-19T12:09:45;17.15;;;3.92;;
70975;SDS011;58635;51.198;6.010;2023-11-19T12:14:59;21.42;;;4.10;;
70975;SDS011;58635;51.198;6.010;2023-11-19T12:17:36;17.33;;;3.63;;
70975;SDS011;58635;51.198;6.010;2023-11-19T12:20:07;14.95;;;3.20;;
70975;SDS011;58635;51.198;6.010;2023-11-19T12:22:37;14.80;;;3.30;;
70975;SDS011;58635;51.198;6.010;2023-11-19T12:25:05;21.15;;;3.47;;
70975;SDS011;58635;51.198;6.010;2023-11-19T12:27:33;17.73;;;3.45;;
70975;SDS011;58635;51.198;6.010;2023-11-19T12:30:02;21.77;;;3.17;;
70975;SDS011;58635;51.198;6.010;2023-11-19T12:32:38;15.68;;;2.72;;
70975;SDS011;58635;51.198;6.010;2023-11-19T12:35:08;22.30;;;3.78;;
70975;SDS011;58635;51.198;6.010;2023-11-19T12:37:41;14.63;;;2.97;;
70975;SDS011;58635;51.198;6.010;2023-11-19T12:40:21;16.42;;;3.03;;
70975;SDS011;58635;51.198;6.010;2023-11-19T12:42:48;15.98;;;3.50;;
70975;SDS011;58635;51.198;6.010;2023-11-19T12:45:16;17.63;;;3.65;;
70975;SDS011;58635;51.198;6.010;2023-11-19T12:47:43;17.80;;;3.28;;
70975;SDS011;58635;51.198;6.010;2023-11-19T12:50:10;15.48;;;3.22;;
70975;SDS011;58635;51.198;6.010;2023-11-19T12:52:36;15.23;;;3.25;;
70975;SDS011;58635;51.198;6.010;2023-11-19T12:55:04;14.43;;;3.05;;
70975;SDS011;58635;51.198;6.010;2023-11-19T12:57:49;14.23;;;3.00;;
70975;SDS011;58635;51.198;6.010;2023-11-19T13:00:19;15.48;;;2.95;;
70975;SDS011;58635;51.198;6.010;2023-11-19T13:02:51;13.65;;;3.10;;
70975;SDS011;58635;51.198;6.010;2023-11-19T13:08:03;13.38;;;2.92;;
70975;SDS011;58635;51.198;6.010;2023-11-19T13:10:31;17.35;;;3.47;;
70975;SDS011;58635;51.198;6.010;2023-11-19T13:13:08;15.50;;;3.42;;
70975;SDS011;58635;51.198;6.010;2023-11-19T13:15:35;14.52;;;3.03;;
70975;SDS011;58635;51.198;6.010;2023-11-19T13:18:02;14.80;;;3.22;;
70975;SDS011;58635;51.198;6.010;2023-11-19T13:20:28;18.45;;;3.17;;
70975;SDS011;58635;51.198;6.010;2023-11-19T13:22:59;20.35;;;6.43;;
70975;SDS011;58635;51.198;6.010;2023-11-19T13:25:27;18.48;;;5.30;;
70975;SDS011;58635;51.198;6.010;2023-11-19T13:27:54;18.08;;;3.80;;
70975;SDS011;58635;51.198;6.010;2023-11-19T13:30:21;18.80;;;3.33;;
70975;SDS011;58635;51.198;6.010;2023-11-19T13:32:49;18.95;;;3.63;;
70975;SDS011;58635;51.198;6.010;2023-11-19T13:35:16;16.20;;;3.83;;
70975;SDS011;58635;51.198;6.010;2023-11-19T13:37:44;17.45;;;3.40;;
70975;SDS011;58635;51.198;6.010;2023-11-19T13:40:11;18.52;;;3.08;;
70975;SDS011;58635;51.198;6.010;2023-11-19T13:42:41;22.80;;;5.28;;
70975;SDS011;58635;51.198;6.010;2023-11-19T13:45:09;18.33;;;5.57;;
70975;SDS011;58635;51.198;6.010;2023-11-19T13:47:39;13.98;;;3.50;;
70975;SDS011;58635;51.198;6.010;2023-11-19T13:50:10;18.25;;;3.67;;
70975;SDS011;58635;51.198;6.010;2023-11-19T13:52:38;18.08;;;3.10;;
70975;SDS011;58635;51.198;6.010;2023-11-19T13:55:06;15.05;;;3.30;;
70975;SDS011;58635;51.198;6.010;2023-11-19T13:57:34;21.30;;;3.92;;
70975;SDS011;58635;51.198;6.010;2023-11-19T14:00:05;21.17;;;4.13;;
70975;SDS011;58635;51.198;6.010;2023-11-19T14:02:33;16.83;;;3.10;;
70975;SDS011;58635;51.198;6.010;2023-11-19T14:04:59;18.30;;;3.70;;
70975;SDS011;58635;51.198;6.010;2023-11-19T14:07:26;18.40;;;3.65;;
70975;SDS011;58635;51.198;6.010;2023-11-19T14:09:53;15.18;;;3.17;;
70975;SDS011;58635;51.198;6.010;2023-11-19T14:12:20;16.67;;;3.72;;
70975;SDS011;58635;51.198;6.010;2023-11-19T14:14:46;15.60;;;3.97;;
70975;SDS011;58635;51.198;6.010;2023-11-19T14:17:13;15.82;;;3.63;;
70975;SDS011;58635;51.198;6.010;2023-11-19T14:19:41;17.42;;;3.75;;
70975;SDS011;58635;51.198;6.010;2023-11-19T14:22:08;12.90;;;3.85;;
70975;SDS011;58635;51.198;6.010;2023-11-19T14:24:35;15.45;;;3.13;;
70975;SDS011;58635;51.198;6.010;2023-11-19T14:27:01;15.40;;;3.55;;
70975;SDS011;58635;51.198;6.010;2023-11-19T14:29:28;15.98;;;3.65;;
70975;SDS011;58635;51.198;6.010;2023-11-19T14:31:57;14.70;;;3.42;;
70975;SDS011;58635;51.198;6.010;2023-11-19T14:34:25;14.48;;;2.97;;
70975;SDS011;58635;51.198;6.010;2023-11-19T14:36:52;16.13;;;2.90;;
70975;SDS011;58635;51.198;6.010;2023-11-19T14:39:19;14.68;;;3.50;;
70975;SDS011;58635;51.198;6.010;2023-11-19T14:41:46;13.98;;;2.90;;
70975;SDS011;58635;51.198;6.010;2023-11-19T14:44:12;14.65;;;3.58;;
70975;SDS011;58635;51.198;6.010;2023-11-19T14:46:39;17.77;;;3.85;;
70975;SDS011;58635;51.198;6.010;2023-11-19T14:49:05;18.10;;;3.42;;
70975;SDS011;58635;51.198;6.010;2023-11-19T14:51:36;14.48;;;3.00;;
70975;SDS011;58635;51.198;6.010;2023-11-19T14:54:04;23.42;;;9.55;;
70975;SDS011;58635;51.198;6.010;2023-11-19T14:56:31;17.23;;;3.40;;
70975;SDS011;58635;51.198;6.010;2023-11-19T14:58:57;17.90;;;6.50;;